Time;durP1;ratioP1;P1;durP2;ratioP2;P2;SDS_P1;SDS_P2;PMS_P1;PMS_P2;Temp;Humidity;BMP_temperature;BMP_pressure;BME280_temperature;BME280_humidity;BME280_pressure;Samples;Min_cycle;Max_cycle;Signal;HPM_P1;HPM_P2
2023/01/25 00:01:59;;;;;;;13.85;7.82;;;;;;;;;;5045928;28;20025;-54
2023/01/25 00:04:25;;;;;;;13.73;8.00;;;;;;;;;;5045220;28;20029;-49
2023/01/25 00:06:51;;;;;;;14.82;8.80;;;;;;;;;;5046321;28;20028;-50
2023/01/25 00:09:18;;;;;;;12.95;7.60;;;;;;;;;;5045482;28;20031;-51
2023/01/25 00:11:44;;;;;;;13.32;8.13;;;;;;;;;;5045977;28;20326;-49
2023/01/25 00:14:10;;;;;;;12.77;7.75;;;;;;;;;;5042237;28;20030;-48
2023/01/25 00:16:37;;;;;;;12.73;7.80;;;;;;;;;;5026223;28;20068;-49
2023/01/25 00:19:03;;;;;;;13.13;7.88;;;;;;;;;;5025569;28;20034;-50
2023/01/25 00:21:29;;;;;;;13.02;6.90;;;;;;;;;;5026587;28;20099;-50
2023/01/25 00:23:55;;;;;;;12.55;7.45;;;;;;;;;;5025607;28;20060;-51
2023/01/25 00:26:21;;;;;;;13.63;7.38;;;;;;;;;;5025735;28;20073;-49
2023/01/25 00:28:54;;;;;;;14.50;8.23;;;;;;;;;;5025818;28;20441;-49
2023/01/25 00:31:26;;;;;;;12.75;7.63;;;;;;;;;;5025727;28;20022;-50
2023/01/25 00:33:59;;;;;;;11.57;7.43;;;;;;;;;;5025193;28;20071;-53
2023/01/25 00:36:37;;;;;;;13.63;7.78;;;;;;;;;;5025776;28;20025;-49
2023/01/25 00:39:04;;;;;;;13.65;7.07;;;;;;;;;;5025563;28;20057;-48
2023/01/25 00:41:30;;;;;;;12.70;8.00;;;;;;;;;;5026372;28;20072;-53
2023/01/25 00:43:57;;;;;;;12.48;7.47;;;;;;;;;;5025330;28;20112;-51
2023/01/25 00:46:23;;;;;;;13.00;7.25;;;;;;;;;;5025361;28;20056;-49
2023/01/25 00:48:49;;;;;;;12.57;7.10;;;;;;;;;;5025205;28;20025;-52
2023/01/25 00:51:16;;;;;;;13.98;7.68;;;;;;;;;;5025616;28;20030;-49
2023/01/25 00:53:42;;;;;;;12.50;7.15;;;;;;;;;;5025204;28;20091;-50
2023/01/25 00:56:08;;;;;;;11.82;6.70;;;;;;;;;;5025367;28;20197;-50
2023/01/25 00:58:34;;;;;;;11.48;6.97;;;;;;;;;;5025134;28;20017;-49
2023/01/25 01:01:00;;;;;;;11.65;7.22;;;;;;;;;;5025687;28;20026;-51
2023/01/25 01:03:26;;;;;;;11.55;6.88;;;;;;;;;;5024952;28;20029;-48
2023/01/25 06:15:42;;;;;;;13.18;8.00;;;;;;;;;;5048778;28;20075;-52
2023/01/25 06:18:08;;;;;;;15.23;9.30;;;;;;;;;;5049932;28;20534;-51
2023/01/25 06:20:35;;;;;;;13.90;8.77;;;;;;;;;;5049837;28;20025;-51
2023/01/25 06:23:01;;;;;;;13.50;7.80;;;;;;;;;;5049680;28;20040;-52
2023/01/25 06:25:28;;;;;;;14.00;8.55;;;;;;;;;;5049649;28;20075;-49
2023/01/25 06:27:54;;;;;;;15.65;9.30;;;;;;;;;;5049747;28;20287;-51
2023/01/25 06:30:21;;;;;;;15.07;8.98;;;;;;;;;;5034675;28;20022;-48
2023/01/25 06:32:49;;;;;;;14.38;8.27;;;;;;;;;;5029342;28;20034;-52
2023/01/25 06:35:15;;;;;;;14.27;8.57;;;;;;;;;;5030051;28;20072;-50
2023/01/25 06:37:41;;;;;;;13.35;8.05;;;;;;;;;;5029332;28;20026;-51
2023/01/25 06:40:07;;;;;;;14.45;9.25;;;;;;;;;;5029024;28;20022;-49
2023/01/25 06:42:33;;;;;;;14.82;9.13;;;;;;;;;;5028812;28;20045;-49
2023/01/25 06:44:59;;;;;;;16.25;9.27;;;;;;;;;;5029215;28;20075;-53
2023/01/25 06:47:26;;;;;;;15.70;9.52;;;;;;;;;;5029115;28;20098;-50
2023/01/25 06:49:52;;;;;;;14.15;8.50;;;;;;;;;;5029762;28;20098;-53
2023/01/25 06:52:19;;;;;;;15.23;9.38;;;;;;;;;;5029515;28;20068;-50
2023/01/25 06:54:45;;;;;;;15.27;9.20;;;;;;;;;;5029079;28;20025;-49
2023/01/25 06:57:11;;;;;;;15.32;9.27;;;;;;;;;;5029141;28;20034;-49
2023/01/25 06:59:37;;;;;;;17.42;9.93;;;;;;;;;;5028992;28;20503;-51
2023/01/25 07:02:03;;;;;;;16.23;9.00;;;;;;;;;;5029528;28;20034;-52
2023/01/25 07:04:30;;;;;;;15.32;9.27;;;;;;;;;;5029780;28;20048;-51
2023/01/25 07:06:56;;;;;;;16.20;9.85;;;;;;;;;;5028134;28;20033;-52
2023/01/25 07:09:23;;;;;;;14.38;9.07;;;;;;;;;;5029290;28;20033;-53
2023/01/25 07:11:50;;;;;;;16.52;10.32;;;;;;;;;;5028714;28;20025;-52
2023/01/25 07:14:16;;;;;;;17.23;9.90;;;;;;;;;;5029101;28;20495;-52
2023/01/25 07:16:42;;;;;;;17.38;9.90;;;;;;;;;;5038758;28;20036;-48
2023/01/25 07:19:10;;;;;;;17.13;9.88;;;;;;;;;;5047712;28;20096;-48
2023/01/25 07:21:36;;;;;;;16.02;9.00;;;;;;;;;;5048231;28;20035;-49
2023/01/25 07:24:03;;;;;;;16.17;9.88;;;;;;;;;;5048659;28;20714;-48
2023/01/25 07:26:29;;;;;;;16.48;10.68;;;;;;;;;;5048297;28;20671;-52
2023/01/25 07:28:56;;;;;;;18.55;10.73;;;;;;;;;;5049237;28;20108;-49
2023/01/25 07:31:22;;;;;;;16.38;10.15;;;;;;;;;;5049149;28;20033;-49
2023/01/25 07:33:49;;;;;;;18.05;10.70;;;;;;;;;;5049111;28;20477;-49
2023/01/25 07:36:16;;;;;;;15.32;9.07;;;;;;;;;;5049757;28;20079;-48
2023/01/25 07:38:42;;;;;;;16.02;9.52;;;;;;;;;;5049984;28;20292;-48
2023/01/25 07:41:08;;;;;;;17.73;10.27;;;;;;;;;;5049505;28;20064;-48
2023/01/25 07:43:34;;;;;;;14.55;8.88;;;;;;;;;;5049625;28;20079;-48
2023/01/25 07:46:04;;;;;;;15.20;8.93;;;;;;;;;;5048790;28;20037;-49
2023/01/25 07:48:31;;;;;;;15.82;9.45;;;;;;;;;;5049947;28;20756;-51
2023/01/25 07:53:46;;;;;;;12.77;7.88;;;;;;;;;;5048965;28;20044;-49
2023/01/25 07:56:12;;;;;;;13.77;8.57;;;;;;;;;;5048637;28;20519;-48
2023/01/25 07:58:39;;;;;;;15.90;9.43;;;;;;;;;;5048798;28;20029;-49
2023/01/25 08:01:12;;;;;;;16.00;8.75;;;;;;;;;;5049266;28;20028;-53
2023/01/25 08:03:38;;;;;;;17.30;10.10;;;;;;;;;;5049479;28;20036;-49
2023/01/25 08:06:05;;;;;;;16.75;9.75;;;;;;;;;;5049046;28;20432;-50
2023/01/25 08:08:35;;;;;;;14.90;8.48;;;;;;;;;;5049222;28;20029;-48
2023/01/25 08:11:07;;;;;;;15.25;9.00;;;;;;;;;;5048082;28;20028;-50
2023/01/25 08:13:33;;;;;;;14.35;9.13;;;;;;;;;;5045001;28;20530;-48
2023/01/25 08:15:58;;;;;;;16.52;9.77;;;;;;;;;;5046384;28;20029;-49
2023/01/25 08:18:25;;;;;;;15.35;9.32;;;;;;;;;;5048021;28;20025;-51
2023/01/25 08:20:51;;;;;;;18.40;9.48;;;;;;;;;;5049255;28;20033;-48
2023/01/25 08:23:19;;;;;;;15.77;9.32;;;;;;;;;;5049111;28;20075;-49
2023/01/25 08:25:45;;;;;;;17.55;9.70;;;;;;;;;;5047792;28;20025;-50
2023/01/25 08:28:11;;;;;;;14.68;9.15;;;;;;;;;;5047283;28;20031;-48
2023/01/25 08:30:37;;;;;;;19.00;10.18;;;;;;;;;;5047804;28;20021;-47
2023/01/25 08:33:04;;;;;;;15.00;8.68;;;;;;;;;;5047035;28;20059;-48
2023/01/25 08:35:31;;;;;;;15.55;9.43;;;;;;;;;;5047260;28;20059;-48
2023/01/25 08:37:57;;;;;;;16.92;9.77;;;;;;;;;;5047381;28;20175;-48
2023/01/25 08:40:23;;;;;;;16.40;9.43;;;;;;;;;;5047466;28;20021;-47
2023/01/25 08:42:49;;;;;;;13.38;8.35;;;;;;;;;;5046947;28;20077;-50
2023/01/25 08:45:15;;;;;;;15.07;8.77;;;;;;;;;;5047157;28;20116;-49
2023/01/25 08:47:41;;;;;;;15.43;8.77;;;;;;;;;;5047392;28;20033;-50
2023/01/25 08:50:07;;;;;;;13.63;8.40;;;;;;;;;;5047013;28;20051;-48
2023/01/25 08:52:33;;;;;;;14.88;9.02;;;;;;;;;;5046951;28;20021;-49
2023/01/25 08:54:59;;;;;;;13.40;8.30;;;;;;;;;;5047060;28;20466;-48
2023/01/25 08:57:25;;;;;;;14.65;8.90;;;;;;;;;;5046599;28;20347;-49
2023/01/25 08:59:51;;;;;;;13.60;8.50;;;;;;;;;;5047244;28;20024;-49
2023/01/25 09:02:18;;;;;;;12.77;7.97;;;;;;;;;;5045562;28;20056;-49
2023/01/25 09:04:44;;;;;;;15.25;9.07;;;;;;;;;;5046699;28;20550;-49
2023/01/25 09:07:11;;;;;;;15.35;8.98;;;;;;;;;;5046493;28;20025;-49
2023/01/25 09:09:37;;;;;;;13.18;8.57;;;;;;;;;;5047268;28;20028;-49
2023/01/25 09:12:03;;;;;;;13.65;7.95;;;;;;;;;;5046563;28;20492;-48
2023/01/25 09:14:29;;;;;;;14.50;8.52;;;;;;;;;;5047025;28;20036;-49
2023/01/25 09:16:55;;;;;;;15.20;8.65;;;;;;;;;;5046716;28;20033;-50
2023/01/25 09:19:21;;;;;;;12.25;7.75;;;;;;;;;;5046877;28;20028;-52
2023/01/25 09:21:48;;;;;;;14.35;8.40;;;;;;;;;;5046370;28;20021;-48
2023/01/25 09:24:14;;;;;;;16.73;9.18;;;;;;;;;;5046408;28;20603;-47
2023/01/25 09:26:41;;;;;;;17.27;9.23;;;;;;;;;;5046420;28;20060;-50
2023/01/25 09:29:08;;;;;;;15.05;8.48;;;;;;;;;;5046931;28;20053;-50
2023/01/25 09:31:34;;;;;;;14.00;8.65;;;;;;;;;;5046523;28;20025;-50
2023/01/25 09:34:01;;;;;;;14.48;8.48;;;;;;;;;;5046432;28;20550;-48
2023/01/25 09:36:27;;;;;;;13.82;8.25;;;;;;;;;;5046655;28;20031;-48
2023/01/25 09:38:54;;;;;;;17.65;9.00;;;;;;;;;;5045388;28;20021;-51
2023/01/25 09:41:27;;;;;;;14.45;8.32;;;;;;;;;;5045375;28;20087;-48
2023/01/25 09:43:53;;;;;;;16.07;9.23;;;;;;;;;;5047006;28;20070;-50
2023/01/25 09:46:19;;;;;;;13.82;8.27;;;;;;;;;;5047161;28;20685;-48
2023/01/25 09:48:55;;;;;;;15.32;8.95;;;;;;;;;;5046430;28;20033;-48
2023/01/25 09:51:27;;;;;;;14.82;8.82;;;;;;;;;;5044726;28;20104;-49
2023/01/25 09:53:56;;;;;;;15.30;8.77;;;;;;;;;;5045568;28;20507;-50
2023/01/25 09:56:30;;;;;;;14.23;9.13;;;;;;;;;;5045602;28;20025;-48
2023/01/25 09:59:02;;;;;;;15.32;9.30;;;;;;;;;;5045613;28;20033;-47
2023/01/25 10:01:41;;;;;;;13.77;9.40;;;;;;;;;;5046213;28;20064;-49
2023/01/25 10:04:14;;;;;;;16.92;9.80;;;;;;;;;;5047011;28;20029;-49
2023/01/25 10:06:41;;;;;;;17.02;10.40;;;;;;;;;;5045503;28;20064;-49
2023/01/25 10:09:15;;;;;;;16.75;9.98;;;;;;;;;;5047381;28;20029;-48
2023/01/25 10:11:41;;;;;;;16.10;10.27;;;;;;;;;;5047304;28;20033;-53
2023/01/25 10:14:18;;;;;;;17.35;10.07;;;;;;;;;;5047652;28;20458;-47
2023/01/25 10:16:50;;;;;;;15.48;9.88;;;;;;;;;;5046786;28;20029;-47
2023/01/25 10:19:17;;;;;;;17.02;9.73;;;;;;;;;;5050436;28;20538;-49
2023/01/25 10:21:55;;;;;;;16.92;9.30;;;;;;;;;;5050692;28;20017;-50
2023/01/25 10:24:37;;;;;;;16.52;9.40;;;;;;;;;;5049832;28;20112;-50
2023/01/25 10:27:12;;;;;;;16.55;9.82;;;;;;;;;;5050299;28;20035;-48
2023/01/25 10:29:38;;;;;;;15.40;8.52;;;;;;;;;;5049827;28;20033;-50
2023/01/25 10:32:17;;;;;;;15.07;9.05;;;;;;;;;;5050370;28;20024;-50
2023/01/25 10:34:45;;;;;;;14.80;9.00;;;;;;;;;;5049798;28;20071;-49
2023/01/25 10:37:13;;;;;;;16.33;9.55;;;;;;;;;;5050529;28;20036;-48
2023/01/25 10:39:41;;;;;;;18.85;9.70;;;;;;;;;;5049521;28;20071;-49
2023/01/25 10:42:11;;;;;;;16.30;8.70;;;;;;;;;;5049217;28;20116;-50
2023/01/25 10:44:37;;;;;;;15.98;8.75;;;;;;;;;;5050741;28;20052;-47
2023/01/25 10:47:03;;;;;;;14.95;9.20;;;;;;;;;;5049759;28;20110;-51
2023/01/25 10:49:43;;;;;;;14.80;8.80;;;;;;;;;;5050707;28;20029;-48
2023/01/25 10:52:17;;;;;;;13.50;8.35;;;;;;;;;;5050875;28;20100;-49
2023/01/25 10:54:43;;;;;;;14.55;8.88;;;;;;;;;;5051689;28;20029;-48
2023/01/25 10:57:13;;;;;;;14.68;8.60;;;;;;;;;;5049936;28;20027;-48
2023/01/25 10:59:39;;;;;;;13.63;8.55;;;;;;;;;;5051409;28;20040;-48
2023/01/25 11:02:24;;;;;;;13.48;8.32;;;;;;;;;;5051215;28;20033;-50
2023/01/25 11:04:50;;;;;;;13.85;7.68;;;;;;;;;;5048598;28;20032;-52
2023/01/25 11:07:26;;;;;;;12.43;7.72;;;;;;;;;;5050447;28;20029;-49
2023/01/25 11:09:53;;;;;;;13.20;7.78;;;;;;;;;;5050427;28;20036;-49
2023/01/25 11:12:20;;;;;;;13.88;8.75;;;;;;;;;;5049431;28;20052;-52
2023/01/25 11:14:50;;;;;;;13.55;8.27;;;;;;;;;;5050466;28;20029;-47
2023/01/25 11:17:23;;;;;;;12.95;8.13;;;;;;;;;;5050977;28;20451;-50
2023/01/25 11:20:01;;;;;;;13.05;8.15;;;;;;;;;;5051101;28;20025;-48
2023/01/25 11:22:28;;;;;;;14.05;8.27;;;;;;;;;;5050977;28;20037;-48
2023/01/25 11:24:54;;;;;;;14.35;8.55;;;;;;;;;;5049196;28;20044;-49
2023/01/25 11:27:24;;;;;;;14.10;8.05;;;;;;;;;;5044162;28;20028;-52
2023/01/25 11:30:08;;;;;;;11.90;7.85;;;;;;;;;;5058251;28;20486;-50
2023/01/25 11:32:34;;;;;;;;;;;;;;;;;;5053663;28;20032;-48
2023/01/25 11:35:00;;;;;;;15.68;8.73;;;;;;;;;;5050542;28;19924;-48
2023/01/25 11:37:26;;;;;;;14.18;8.13;;;;;;;;;;5050830;28;20396;-49
2023/01/25 11:40:02;;;;;;;13.35;8.68;;;;;;;;;;5050451;28;20033;-50
2023/01/25 11:42:34;;;;;;;14.55;9.00;;;;;;;;;;5050808;28;20037;-49
2023/01/25 11:45:03;;;;;;;13.02;8.20;;;;;;;;;;5049618;28;20131;-48
2023/01/25 11:47:40;;;;;;;13.52;8.43;;;;;;;;;;5030821;28;20030;-48
2023/01/25 11:50:06;;;;;;;11.90;7.85;;;;;;;;;;5030710;28;20033;-50
2023/01/25 11:52:41;;;;;;;13.20;8.00;;;;;;;;;;5035612;28;20048;-49
2023/01/25 11:55:26;;;;;;;12.70;8.25;;;;;;;;;;5050189;28;20025;-49
2023/01/25 11:58:10;;;;;;;13.32;8.48;;;;;;;;;;5048544;28;20035;-51
2023/01/25 12:00:48;;;;;;;12.75;7.90;;;;;;;;;;5043002;28;20059;-51
2023/01/25 12:03:14;;;;;;;14.43;8.85;;;;;;;;;;5049125;28;20107;-47
2023/01/25 12:05:59;;;;;;;13.23;8.13;;;;;;;;;;5049892;28;20119;-50
2023/01/25 12:08:31;;;;;;;14.25;8.30;;;;;;;;;;5049956;28;20021;-49
2023/01/25 12:11:06;;;;;;;12.93;7.88;;;;;;;;;;5049942;28;20056;-48
2023/01/25 12:13:32;;;;;;;11.35;7.60;;;;;;;;;;5048337;28;20041;-51
2023/01/25 12:16:10;;;;;;;14.30;8.13;;;;;;;;;;5050938;28;20039;-48
2023/01/25 12:18:43;;;;;;;12.82;8.20;;;;;;;;;;5040025;28;20025;-49
2023/01/25 12:21:14;;;;;;;11.85;8.15;;;;;;;;;;5048803;28;20025;-46
2023/01/25 12:23:40;;;;;;;14.68;9.00;;;;;;;;;;5048112;28;20104;-50
2023/01/25 12:26:09;;;;;;;12.52;7.57;;;;;;;;;;5049887;28;20033;-49
2023/01/25 12:28:35;;;;;;;13.80;8.02;;;;;;;;;;5054722;28;20032;-51
2023/01/25 12:31:11;;;;;;;10.25;6.68;;;;;;;;;;5046483;28;20063;-48
2023/01/25 12:33:37;;;;;;;10.60;7.15;;;;;;;;;;5046574;28;20036;-48
2023/01/25 12:36:21;;;;;;;13.25;7.70;;;;;;;;;;5057535;28;20460;-47
2023/01/25 12:38:59;;;;;;;11.43;7.18;;;;;;;;;;5047671;28;20139;-47
2023/01/25 12:41:31;;;;;;;11.57;7.45;;;;;;;;;;5049597;28;20426;-48
2023/01/25 12:44:03;;;;;;;13.15;7.82;;;;;;;;;;5045669;28;20037;-48
2023/01/25 12:46:32;;;;;;;11.13;7.00;;;;;;;;;;5051410;28;20027;-49
2023/01/25 12:49:00;;;;;;;11.60;7.95;;;;;;;;;;5065077;28;20066;-50
2023/01/25 12:51:29;;;;;;;12.10;7.57;;;;;;;;;;5026997;28;20083;-49
2023/01/25 12:53:56;;;;;;;13.25;8.10;;;;;;;;;;5027316;28;20029;-46
2023/01/25 12:56:32;;;;;;;12.35;7.75;;;;;;;;;;5043389;28;20047;-47
2023/01/25 12:59:19;;;;;;;11.70;7.25;;;;;;;;;;5045104;28;20032;-47
2023/01/25 13:02:03;;;;;;;13.07;8.25;;;;;;;;;;5026292;28;20115;-50
2023/01/25 13:04:48;;;;;;;13.25;8.20;;;;;;;;;;5043726;28;20016;-49
2023/01/25 13:07:29;;;;;;;12.93;7.95;;;;;;;;;;5034392;28;20036;-47
2023/01/25 13:09:58;;;;;;;13.98;8.52;;;;;;;;;;5066744;28;20620;-48
2023/01/25 13:12:24;;;;;;;12.23;7.55;;;;;;;;;;5063658;28;20029;-50
2023/01/25 13:14:50;;;;;;;11.60;7.28;;;;;;;;;;5045671;28;20029;-51
2023/01/25 13:17:21;;;;;;;11.27;7.30;;;;;;;;;;5044509;28;20033;-50
2023/01/25 13:19:48;;;;;;;11.43;7.20;;;;;;;;;;5045968;28;20108;-48
2023/01/25 13:22:34;;;;;;;11.52;7.32;;;;;;;;;;5045458;28;20029;-49
2023/01/25 13:25:03;;;;;;;12.05;7.38;;;;;;;;;;5035700;28;20066;-46
2023/01/25 13:27:30;;;;;;;9.50;5.90;;;;;;;;;;5046348;28;20021;-50
2023/01/25 13:29:56;;;;;;;8.25;5.95;;;;;;;;;;5046561;28;20033;-47
2023/01/25 13:32:26;;;;;;;11.00;6.60;;;;;;;;;;5045838;28;20033;-47
2023/01/25 13:34:52;;;;;;;10.52;6.95;;;;;;;;;;5044034;28;20055;-47
2023/01/25 13:37:20;;;;;;;11.55;6.60;;;;;;;;;;5044656;28;20556;-47
2023/01/25 13:39:47;;;;;;;10.70;6.38;;;;;;;;;;5045744;28;20029;-47
2023/01/25 13:42:13;;;;;;;11.40;6.57;;;;;;;;;;5045971;28;20415;-50
2023/01/25 13:44:44;;;;;;;11.43;6.60;;;;;;;;;;5046132;28;20029;-47
2023/01/25 13:47:11;;;;;;;11.48;6.65;;;;;;;;;;5045288;28;20053;-50
2023/01/25 13:49:51;;;;;;;11.73;7.18;;;;;;;;;;5045944;28;20033;-51
2023/01/25 13:52:19;;;;;;;10.07;6.45;;;;;;;;;;5045692;28;20037;-48
2023/01/25 13:54:45;;;;;;;11.55;6.60;;;;;;;;;;5047131;28;20025;-47
2023/01/25 13:57:19;;;;;;;10.13;6.15;;;;;;;;;;5049670;28;20566;-47
2023/01/25 13:59:45;;;;;;;9.88;6.38;;;;;;;;;;5045874;28;20036;-46
2023/01/25 14:02:22;;;;;;;9.07;6.35;;;;;;;;;;5046441;28;20043;-46
2023/01/25 14:04:49;;;;;;;9.48;6.60;;;;;;;;;;5043749;28;20033;-49
2023/01/25 14:07:17;;;;;;;9.00;5.97;;;;;;;;;;5048359;28;20429;-47
2023/01/25 14:09:43;;;;;;;9.02;5.60;;;;;;;;;;5048624;28;20037;-51
2023/01/25 14:12:11;;;;;;;10.23;5.75;;;;;;;;;;5047178;28;20490;-48
2023/01/25 14:14:38;;;;;;;8.57;5.68;;;;;;;;;;5048161;28;20029;-48
2023/01/25 14:17:13;;;;;;;10.32;6.03;;;;;;;;;;5036812;28;20040;-48
2023/01/25 14:19:39;;;;;;;9.35;5.38;;;;;;;;;;5029147;28;20048;-50
2023/01/25 14:22:15;;;;;;;8.05;5.30;;;;;;;;;;5029046;28;20025;-49
2023/01/25 14:24:41;;;;;;;7.75;5.07;;;;;;;;;;5028737;28;20048;-49
2023/01/25 14:27:11;;;;;;;9.40;6.00;;;;;;;;;;5028775;28;20541;-48
2023/01/25 14:29:37;;;;;;;8.50;5.65;;;;;;;;;;5029170;28;20032;-48
2023/01/25 14:32:03;;;;;;;8.68;5.15;;;;;;;;;;5029122;28;20075;-51
2023/01/25 14:34:30;;;;;;;8.32;5.30;;;;;;;;;;5028460;28;20025;-48
2023/01/25 14:37:12;;;;;;;7.95;4.90;;;;;;;;;;5041388;28;20025;-48
2023/01/25 14:39:38;;;;;;;7.07;4.97;;;;;;;;;;5037392;28;20713;-49
2023/01/25 14:42:04;;;;;;;8.25;5.10;;;;;;;;;;5026799;28;20449;-47
2023/01/25 14:44:32;;;;;;;9.23;5.68;;;;;;;;;;5028783;28;20404;-49
2023/01/25 14:47:17;;;;;;;9.38;5.93;;;;;;;;;;5028417;28;20037;-49
2023/01/25 14:49:43;;;;;;;9.80;5.97;;;;;;;;;;5028479;28;20029;-49
2023/01/25 14:52:13;;;;;;;10.35;6.55;;;;;;;;;;5027327;28;20224;-48
2023/01/25 14:54:45;;;;;;;10.95;6.18;;;;;;;;;;5028221;28;20049;-49
2023/01/25 14:57:26;;;;;;;9.95;5.78;;;;;;;;;;5029453;28;20515;-48
2023/01/25 14:59:54;;;;;;;11.43;6.43;;;;;;;;;;5027910;28;20112;-48
2023/01/25 15:02:20;;;;;;;10.70;6.60;;;;;;;;;;5025933;28;20537;-49
2023/01/25 15:04:59;;;;;;;9.68;5.88;;;;;;;;;;5026726;28;20081;-47
2023/01/25 15:07:40;;;;;;;10.27;6.35;;;;;;;;;;5027649;28;20511;-50
2023/01/25 15:10:21;;;;;;;11.40;7.28;;;;;;;;;;5035130;28;20021;-48
2023/01/25 15:13:01;;;;;;;10.32;6.47;;;;;;;;;;5027606;28;20041;-50
2023/01/25 15:15:28;;;;;;;11.98;6.88;;;;;;;;;;5027225;28;20320;-48
2023/01/25 15:17:57;;;;;;;12.23;7.07;;;;;;;;;;5044997;28;20083;-47
2023/01/25 15:20:36;;;;;;;13.75;7.90;;;;;;;;;;5044904;28;20086;-46
2023/01/25 15:23:19;;;;;;;11.68;7.28;;;;;;;;;;5046880;28;20029;-50
2023/01/25 15:25:49;;;;;;;12.02;7.05;;;;;;;;;;5048031;28;20037;-51
2023/01/25 15:28:15;;;;;;;10.88;6.78;;;;;;;;;;5048195;28;20112;-48
2023/01/25 15:30:41;;;;;;;12.35;7.35;;;;;;;;;;5048233;28;20096;-47
2023/01/25 15:33:09;;;;;;;11.00;7.18;;;;;;;;;;5047641;28;20041;-51
2023/01/25 15:35:35;;;;;;;10.80;6.57;;;;;;;;;;5047433;28;20029;-47
2023/01/25 15:38:01;;;;;;;11.68;7.05;;;;;;;;;;5046268;28;20079;-47
2023/01/25 15:40:27;;;;;;;11.10;6.78;;;;;;;;;;5047142;28;20025;-48
2023/01/25 15:42:54;;;;;;;11.45;7.05;;;;;;;;;;5047663;28;20512;-50
2023/01/25 15:45:20;;;;;;;18.63;10.23;;;;;;;;;;5048708;28;20078;-49
2023/01/25 15:47:46;;;;;;;24.17;12.77;;;;;;;;;;5048929;28;20458;-47
2023/01/25 15:50:18;;;;;;;28.52;15.05;;;;;;;;;;5049406;28;20534;-50
2023/01/25 15:52:44;;;;;;;25.95;14.25;;;;;;;;;;5046309;28;20037;-46
2023/01/25 15:55:13;;;;;;;24.95;14.70;;;;;;;;;;5048963;28;20086;-48
2023/01/25 15:57:40;;;;;;;22.13;12.57;;;;;;;;;;5049498;28;20027;-46
2023/01/25 16:00:07;;;;;;;20.60;11.80;;;;;;;;;;5047667;28;20029;-47
2023/01/25 16:02:33;;;;;;;17.48;10.60;;;;;;;;;;5046973;28;20029;-47
2023/01/25 16:04:59;;;;;;;17.30;10.30;;;;;;;;;;5047675;28;20029;-50
2023/01/25 16:07:26;;;;;;;16.70;9.68;;;;;;;;;;5047400;28;20031;-47
2023/01/25 16:09:52;;;;;;;16.05;10.20;;;;;;;;;;5047534;28;20029;-48
2023/01/25 16:12:19;;;;;;;14.93;9.02;;;;;;;;;;5046756;28;20033;-51
2023/01/25 16:14:45;;;;;;;13.95;8.43;;;;;;;;;;5047893;28;20090;-49
2023/01/25 16:17:15;;;;;;;12.15;8.27;;;;;;;;;;5046992;28;20059;-48
2023/01/25 16:19:42;;;;;;;13.30;7.97;;;;;;;;;;5047587;28;20032;-49
2023/01/25 16:22:09;;;;;;;14.55;9.00;;;;;;;;;;5046596;28;20045;-47
2023/01/25 16:24:36;;;;;;;12.60;7.82;;;;;;;;;;5047283;28;20033;-48
2023/01/25 16:27:02;;;;;;;11.60;7.45;;;;;;;;;;5048207;28;20032;-47
2023/01/25 16:29:28;;;;;;;11.38;7.38;;;;;;;;;;5047857;28;20113;-50
2023/01/25 16:31:54;;;;;;;10.02;7.28;;;;;;;;;;5048164;28;20112;-47
2023/01/25 16:34:21;;;;;;;10.73;7.25;;;;;;;;;;5051149;28;20551;-48
2023/01/25 16:36:49;;;;;;;9.45;6.15;;;;;;;;;;5048127;28;20029;-46
2023/01/25 16:39:18;;;;;;;8.68;5.60;;;;;;;;;;5046110;28;20416;-49
2023/01/25 16:41:45;;;;;;;11.52;7.35;;;;;;;;;;5045444;28;20079;-51
2023/01/25 16:44:11;;;;;;;10.95;6.78;;;;;;;;;;5046333;28;20032;-48
2023/01/25 16:46:37;;;;;;;10.50;6.40;;;;;;;;;;5045605;28;20098;-48
2023/01/25 16:49:07;;;;;;;9.02;6.07;;;;;;;;;;5045560;28;20029;-47
2023/01/25 16:51:34;;;;;;;11.07;6.55;;;;;;;;;;5046807;28;20459;-49
2023/01/25 16:54:01;;;;;;;11.63;6.60;;;;;;;;;;5043087;28;20029;-48
2023/01/25 16:56:28;;;;;;;10.43;6.97;;;;;;;;;;5046506;28;20043;-47
2023/01/25 16:58:56;;;;;;;10.00;6.20;;;;;;;;;;5046836;28;20032;-48
2023/01/25 17:01:24;;;;;;;9.13;5.90;;;;;;;;;;5045478;28;20029;-48
2023/01/25 17:03:51;;;;;;;9.73;6.18;;;;;;;;;;5044755;28;20028;-49
2023/01/25 17:06:25;;;;;;;10.35;6.38;;;;;;;;;;5046234;28;20025;-47
2023/01/25 17:08:51;;;;;;;10.48;6.28;;;;;;;;;;5046212;28;20615;-48
2023/01/25 17:11:18;;;;;;;9.40;6.05;;;;;;;;;;5045254;28;20549;-49
2023/01/25 17:13:48;;;;;;;9.32;6.10;;;;;;;;;;5045651;28;20039;-48
2023/01/25 17:16:14;;;;;;;8.25;5.35;;;;;;;;;;5046045;28;20567;-50
2023/01/25 17:18:40;;;;;;;8.05;5.35;;;;;;;;;;5045960;28;20032;-50
2023/01/25 17:21:06;;;;;;;10.07;5.93;;;;;;;;;;5050995;28;20079;-48
2023/01/25 17:23:33;;;;;;;9.13;5.68;;;;;;;;;;5047062;28;20377;-49
2023/01/25 17:26:02;;;;;;;8.80;5.68;;;;;;;;;;5053677;28;20129;-47
2023/01/25 17:28:28;;;;;;;9.55;6.00;;;;;;;;;;5070712;28;20100;-47
2023/01/25 17:30:54;;;;;;;7.78;5.13;;;;;;;;;;5053776;28;20578;-48
2023/01/25 17:33:21;;;;;;;8.07;5.15;;;;;;;;;;5050258;28;20056;-49
2023/01/25 17:35:47;;;;;;;7.80;5.38;;;;;;;;;;5050408;28;20029;-50
2023/01/25 17:38:13;;;;;;;8.93;5.63;;;;;;;;;;5054159;28;20124;-48
2023/01/25 17:40:39;;;;;;;9.98;5.88;;;;;;;;;;5050067;28;20071;-50
2023/01/25 17:43:05;;;;;;;11.07;6.30;;;;;;;;;;5057702;28;20029;-52
2023/01/25 17:45:37;;;;;;;9.85;5.95;;;;;;;;;;5048710;28;20111;-50
2023/01/25 17:48:04;;;;;;;9.45;6.22;;;;;;;;;;5051621;28;20029;-50
2023/01/25 17:50:30;;;;;;;12.00;7.38;;;;;;;;;;5047760;28;20457;-51
2023/01/25 17:52:56;;;;;;;12.10;7.43;;;;;;;;;;5044769;28;20056;-47
2023/01/25 17:55:22;;;;;;;14.95;8.25;;;;;;;;;;5045622;28;20497;-48
2023/01/25 17:57:50;;;;;;;14.90;8.55;;;;;;;;;;5045312;28;20068;-48
2023/01/25 18:00:16;;;;;;;22.77;11.85;;;;;;;;;;5048004;28;20615;-50
2023/01/25 18:02:44;;;;;;;24.63;12.73;;;;;;;;;;5047753;28;20032;-48
2023/01/25 18:05:10;;;;;;;21.55;10.63;;;;;;;;;;5061059;28;20399;-52
2023/01/25 18:07:36;;;;;;;20.67;11.98;;;;;;;;;;5047581;28;20036;-49
2023/01/25 18:10:02;;;;;;;19.42;10.35;;;;;;;;;;5047028;28;20025;-51
2023/01/25 18:12:28;;;;;;;21.15;11.90;;;;;;;;;;5053195;28;20024;-47
2023/01/25 18:14:55;;;;;;;17.48;11.18;;;;;;;;;;5048129;28;20488;-49
2023/01/25 18:17:21;;;;;;;17.95;10.10;;;;;;;;;;5045411;28;20424;-51
2023/01/25 18:19:47;;;;;;;17.08;10.38;;;;;;;;;;5046804;28;20598;-47
2023/01/25 18:22:14;;;;;;;16.42;10.00;;;;;;;;;;5045850;28;20021;-47
2023/01/25 18:24:41;;;;;;;15.85;9.65;;;;;;;;;;5044613;28;20055;-48
2023/01/25 18:27:27;;;;;;;15.13;9.48;;;;;;;;;;5048189;28;20075;-47
2023/01/25 18:29:59;;;;;;;13.85;8.90;;;;;;;;;;5047387;28;20535;-50
2023/01/25 18:32:26;;;;;;;12.65;8.13;;;;;;;;;;5048828;28;20029;-49
2023/01/25 18:34:52;;;;;;;13.75;8.30;;;;;;;;;;5046532;28;20017;-47
2023/01/25 18:37:24;;;;;;;13.30;7.53;;;;;;;;;;5046841;28;20044;-50
2023/01/25 18:39:54;;;;;;;13.75;8.60;;;;;;;;;;5047483;28;20514;-50
2023/01/25 18:42:21;;;;;;;15.30;9.20;;;;;;;;;;5045312;28;20126;-52
2023/01/25 18:44:47;;;;;;;15.48;9.30;;;;;;;;;;5037133;28;20040;-48
2023/01/25 18:47:15;;;;;;;14.07;8.95;;;;;;;;;;5045914;28;20025;-49
2023/01/25 18:49:41;;;;;;;13.43;8.20;;;;;;;;;;5045627;28;20385;-49
2023/01/25 18:52:07;;;;;;;13.63;8.32;;;;;;;;;;5045604;28;20404;-50
2023/01/25 18:54:33;;;;;;;13.00;7.95;;;;;;;;;;5045710;28;20033;-48
2023/01/25 18:56:59;;;;;;;14.68;8.43;;;;;;;;;;5044974;28;20035;-51
2023/01/25 18:59:25;;;;;;;12.63;7.65;;;;;;;;;;5046619;28;20029;-48
2023/01/25 19:01:51;;;;;;;14.85;9.63;;;;;;;;;;5044886;28;20033;-52
2023/01/25 19:04:17;;;;;;;15.45;9.65;;;;;;;;;;5044532;28;20139;-50
2023/01/25 19:06:43;;;;;;;17.25;10.18;;;;;;;;;;5045017;28;20214;-50
2023/01/25 19:09:09;;;;;;;15.20;9.00;;;;;;;;;;5043832;28;20032;-49
2023/01/25 19:11:35;;;;;;;15.20;9.10;;;;;;;;;;5055586;28;20040;-49
2023/01/25 19:14:01;;;;;;;14.32;8.70;;;;;;;;;;5047575;28;20112;-48
2023/01/25 19:16:27;;;;;;;14.65;9.15;;;;;;;;;;5045992;28;20032;-51
2023/01/25 19:18:54;;;;;;;16.40;10.13;;;;;;;;;;5045149;28;20507;-52
2023/01/25 19:21:21;;;;;;;16.58;9.98;;;;;;;;;;5044350;28;20095;-52
2023/01/25 19:23:47;;;;;;;16.88;10.25;;;;;;;;;;5045011;28;20086;-52
2023/01/25 19:26:15;;;;;;;17.05;10.50;;;;;;;;;;5044790;28;20053;-52
2023/01/25 19:28:42;;;;;;;21.83;12.88;;;;;;;;;;5045475;28;20071;-51
2023/01/25 19:31:09;;;;;;;19.85;11.70;;;;;;;;;;5045565;28;20036;-51
2023/01/25 19:33:35;;;;;;;19.17;11.70;;;;;;;;;;5044670;28;20037;-51
2023/01/25 19:36:03;;;;;;;18.23;10.85;;;;;;;;;;5045092;28;20550;-50
2023/01/25 19:38:30;;;;;;;17.52;11.18;;;;;;;;;;5043601;28;20033;-50
2023/01/25 19:41:02;;;;;;;18.30;11.43;;;;;;;;;;5046155;28;20109;-49
2023/01/25 19:43:28;;;;;;;18.60;11.40;;;;;;;;;;5043722;28;20535;-48
2023/01/25 19:46:05;;;;;;;17.63;10.90;;;;;;;;;;5045523;28;20051;-50
2023/01/25 19:48:33;;;;;;;20.15;11.63;;;;;;;;;;5043526;28;20033;-51
2023/01/25 19:51:26;;;;;;;18.90;12.00;;;;;;;;;;5044812;28;20029;-51
2023/01/25 19:54:02;;;;;;;19.65;12.13;;;;;;;;;;5042117;28;20051;-48